Time;durP1;ratioP1;P1;durP2;ratioP2;P2;SDS_P1;SDS_P2;PMS_P1;PMS_P2;Temp;Humidity;BMP_temperature;BMP_pressure;BME280_temperature;BME280_humidity;BME280_pressure;Samples;Min_cycle;Max_cycle;Signal;HPM_P1;HPM_P2
2021/11/08 00:02:36;;;;;;;84.63;47.72;;;;;;;12.28;100.00;101251.81;4939566;29;20028;-70
2021/11/08 00:05:23;;;;;;;87.22;49.58;;;;;;;12.85;100.00;101243.81;4937971;29;20489;-70
2021/11/08 00:08:09;;;;;;;94.50;52.90;;;;;;;12.76;100.00;101233.47;4925659;29;20047;-69
2021/11/08 00:10:55;;;;;;;88.43;49.58;;;;;;;12.86;100.00;101224.50;4938233;29;20426;-69
2021/11/08 00:13:41;;;;;;;90.32;50.15;;;;;;;12.94;100.00;101227.84;4939781;29;20090;-70
2021/11/08 00:22:20;;;;;;;99.07;50.72;;;;;;;13.00;100.00;101233.03;4938339;29;20042;-69
2021/11/08 00:25:07;;;;;;;102.47;51.70;;;;;;;13.17;100.00;101233.56;4937415;29;20028;-70
2021/11/08 00:27:54;;;;;;;100.18;52.85;;;;;;;12.60;100.00;101239.00;4937591;29;20133;-70
2021/11/08 00:30:41;;;;;;;97.90;51.47;;;;;;;13.01;100.00;101240.03;4939312;29;20466;-69
2021/11/08 00:33:27;;;;;;;104.88;52.85;;;;;;;13.07;100.00;101246.94;4925182;29;20036;-70
2021/11/08 02:09:53;;;;;;;85.50;46.38;;;;;;;13.54;100.00;101141.53;4970885;23;20147;-70
2021/11/08 02:12:40;;;;;;;78.10;42.97;;;;;;;13.66;100.00;101135.97;4937502;29;20402;-69
2021/11/08 02:15:25;;;;;;;86.60;47.47;;;;;;;13.56;100.00;101130.09;4923196;29;20028;-69
2021/11/08 02:18:13;;;;;;;81.95;43.78;;;;;;;13.51;100.00;101129.28;4936512;29;20107;-70
2021/11/08 02:21:02;;;;;;;89.55;44.78;;;;;;;13.09;100.00;101138.16;4937341;29;20098;-70
2021/11/08 02:23:48;;;;;;;83.22;44.22;;;;;;;13.41;100.00;101140.94;4937272;29;20032;-70
2021/11/08 02:26:35;;;;;;;92.38;46.65;;;;;;;13.25;100.00;101144.81;4923618;29;20378;-70
2021/11/08 02:29:21;;;;;;;79.57;43.90;;;;;;;13.10;100.00;101128.50;4923960;29;20036;-70
2021/11/08 02:32:07;;;;;;;88.95;46.10;;;;;;;13.62;100.00;101129.91;4935857;29;20342;-70
2021/11/08 02:34:53;;;;;;;83.07;44.10;;;;;;;13.11;100.00;101119.69;4936201;29;20459;-70
2021/11/08 02:37:39;;;;;;;83.38;42.65;;;;;;;13.25;100.00;101128.16;4937104;29;20461;-69
2021/11/08 02:40:28;;;;;;;78.82;41.88;;;;;;;12.90;100.00;101118.34;4937004;29;20347;-70
2021/11/08 02:43:20;;;;;;;84.85;42.90;;;;;;;13.33;100.00;101132.34;4923984;29;20055;-70
2021/11/08 02:46:12;;;;;;;73.35;39.22;;;;;;;13.59;100.00;101119.47;4936715;29;20034;-69
2021/11/08 02:48:59;;;;;;;73.15;40.13;;;;;;;13.92;100.00;101118.69;4936121;29;20387;-70
2021/11/08 02:51:53;;;;;;;63.70;36.30;;;;;;;13.86;100.00;101131.09;4922603;29;20039;-70
2021/11/08 02:54:42;;;;;;;77.72;37.95;;;;;;;14.08;100.00;101120.03;4923919;29;20434;-70
2021/11/08 02:57:28;;;;;;;67.43;37.05;;;;;;;13.41;100.00;101117.25;4923410;29;20027;-70
2021/11/08 03:00:15;;;;;;;69.65;36.80;;;;;;;13.73;100.00;101103.34;4923568;29;20481;-69
2021/11/08 03:03:01;;;;;;;67.63;36.30;;;;;;;14.03;100.00;101099.97;4937787;29;20450;-70
2021/11/08 03:05:47;;;;;;;63.13;33.53;;;;;;;13.54;100.00;101110.81;4935758;29;20070;-69
2021/11/08 03:08:33;;;;;;;60.88;33.72;;;;;;;13.64;100.00;101122.00;4935643;29;20107;-69
2021/11/08 03:11:20;;;;;;;66.32;35.03;;;;;;;13.48;100.00;101116.22;4923543;29;20049;-70
2021/11/08 03:14:10;;;;;;;64.22;34.42;;;;;;;13.66;100.00;101105.25;4923779;29;20035;-69
2021/11/08 03:19:43;;;;;;;73.68;36.40;;;;;;;13.78;100.00;101110.22;4936385;29;20482;-70
2021/11/08 03:22:33;;;;;;;62.28;33.58;;;;;;;14.00;100.00;101105.31;4922218;29;20027;-70
2021/11/08 03:28:19;;;;;;;67.40;35.15;;;;;;;13.64;100.00;101149.19;4940592;29;20031;-70
2021/11/08 03:31:11;;;;;;;65.18;34.67;;;;;;;13.53;100.00;101132.78;4940124;29;20028;-71
2021/11/08 03:33:58;;;;;;;68.35;35.90;;;;;;;13.43;100.00;101104.06;4938847;29;20469;-70
2021/11/08 03:36:44;;;;;;;60.70;32.97;;;;;;;13.89;100.00;101108.22;4938485;29;20042;-69
2021/11/08 03:39:30;;;;;;;77.25;36.75;;;;;;;13.71;100.00;101113.91;4939739;29;20417;-70
2021/11/08 03:42:18;;;;;;;74.95;36.70;;;;;;;13.60;100.00;101117.69;4940489;29;20039;-69
2021/11/08 03:45:05;;;;;;;70.38;34.38;;;;;;;13.64;100.00;101103.56;4938711;29;20032;-70
2021/11/08 03:47:53;;;;;;;67.75;33.38;;;;;;;13.78;100.00;101104.09;4938683;29;20062;-69
2021/11/08 03:50:40;;;;;;;66.93;34.17;;;;;;;13.56;100.00;101095.84;4938338;29;20434;-68
2021/11/08 03:53:26;;;;;;;65.07;32.90;;;;;;;13.98;100.00;101086.88;4938589;29;20039;-69
2021/11/08 03:56:12;;;;;;;59.53;32.20;;;;;;;13.62;100.00;101092.19;4937846;29;20115;-69
2021/11/08 03:59:00;;;;;;;68.38;35.22;;;;;;;13.72;100.00;101089.31;4938385;29;20402;-69
2021/11/08 04:01:46;;;;;;;63.58;34.00;;;;;;;13.54;100.00;101073.94;4938288;29;20036;-70
2021/11/08 04:04:32;;;;;;;68.43;34.28;;;;;;;13.86;100.00;101070.53;4938577;29;20023;-69
2021/11/08 04:07:18;;;;;;;60.33;31.67;;;;;;;13.20;100.00;101074.78;4939481;29;20028;-69
2021/11/08 04:10:05;;;;;;;61.40;31.63;;;;;;;13.33;100.00;101078.84;4937931;29;20050;-70
2021/11/08 04:12:52;;;;;;;83.07;34.08;;;;;;;12.90;100.00;101078.03;4924974;29;20088;-69
2021/11/08 04:15:43;;;;;;;61.63;30.23;;;;;;;13.17;100.00;101073.06;4938212;29;20031;-70
2021/11/08 04:18:30;;;;;;;67.05;32.42;;;;;;;13.01;100.00;101076.06;4924165;29;20114;-70
2021/11/08 04:21:16;;;;;;;60.45;32.17;;;;;;;13.28;100.00;101071.06;4924728;29;20043;-68
2021/11/08 04:24:03;;;;;;;61.88;32.28;;;;;;;13.28;100.00;101091.25;4939442;29;20032;-70
2021/11/08 04:26:49;;;;;;;58.40;30.48;;;;;;;13.20;100.00;101090.56;4937959;29;20118;-70
2021/11/08 04:29:35;;;;;;;55.53;30.42;;;;;;;13.37;100.00;101088.41;4924934;29;20047;-69
2021/11/08 04:32:24;;;;;;;60.70;31.38;;;;;;;13.24;100.00;101082.56;4938224;29;20355;-70
2021/11/08 04:35:14;;;;;;;64.40;32.40;;;;;;;13.48;100.00;101074.13;4939119;29;20701;-71
2021/11/08 05:23:06;;;;;;;51.50;26.45;;;;;;;13.44;100.00;101117.19;4937748;29;20039;-69
2021/11/08 05:31:58;;;;;;;45.90;26.13;;;;;;;13.82;100.00;101114.53;4882014;29;20541;-70
2021/11/08 05:34:45;;;;;;;54.45;27.73;;;;;;;13.89;100.00;101108.22;4937654;29;20133;-70
2021/11/08 05:37:31;;;;;;;47.38;25.90;;;;;;;13.41;100.00;101104.09;4938116;29;20023;-70
2021/11/08 05:40:28;;;;;;;44.97;25.05;;;;;;;13.78;100.00;101107.59;4937687;29;20446;-70
2021/11/08 05:43:13;;;;;;;48.50;24.48;;;;;;;13.76;100.00;101119.06;4922508;29;20442;-70
2021/11/08 05:46:00;;;;;;;44.88;24.42;;;;;;;13.85;100.00;101125.00;4937972;29;20028;-71
2021/11/08 05:48:47;;;;;;;52.05;26.58;;;;;;;13.57;100.00;101136.19;4937231;29;20063;-70
2021/11/08 05:51:33;;;;;;;53.60;26.75;;;;;;;13.89;100.00;101131.91;4922409;29;20111;-71
2021/11/08 05:54:21;;;;;;;47.28;25.33;;;;;;;13.75;100.00;101135.78;4937755;29;20473;-70
2021/11/08 06:49:29;;;;;;;53.40;31.00;;;;;;;14.17;100.00;101105.72;4936253;29;20031;-70
2021/11/08 06:52:16;;;;;;;65.22;33.72;;;;;;;14.36;100.00;101121.03;4935533;29;20028;-70
2021/11/08 06:55:05;;;;;;;62.45;32.88;;;;;;;14.30;100.00;101105.41;4934913;29;20032;-70
2021/11/08 06:57:58;;;;;;;71.28;35.45;;;;;;;14.43;100.00;101116.50;4937256;29;20047;-69
2021/11/08 07:00:45;;;;;;;66.15;34.30;;;;;;;14.61;100.00;101101.03;4939827;29;20028;-69
2021/11/08 07:03:37;;;;;;;62.90;33.80;;;;;;;14.40;100.00;101119.22;4925766;29;20381;-73
2021/11/08 07:06:23;;;;;;;60.95;33.75;;;;;;;14.68;100.00;101109.66;4939287;29;20497;-69
2021/11/08 07:09:09;;;;;;;76.70;35.20;;;;;;;14.37;100.00;101114.00;4938980;29;20085;-71
2021/11/08 07:11:55;;;;;;;64.55;31.98;;;;;;;14.26;100.00;101100.25;4939184;29;20035;-70
2021/11/08 07:14:41;;;;;;;74.75;36.67;;;;;;;14.06;100.00;101103.38;4926305;29;20039;-71
2021/11/08 07:17:27;;;;;;;63.80;34.83;;;;;;;14.59;100.00;101108.13;4913070;29;20096;-71
2021/11/08 07:20:13;;;;;;;59.25;34.08;;;;;;;14.96;100.00;101118.50;4939471;29;20118;-70
2021/11/08 07:22:59;;;;;;;60.80;32.97;;;;;;;14.17;100.00;101108.38;4925673;29;20032;-71
2021/11/08 07:25:45;;;;;;;63.15;33.70;;;;;;;14.38;100.00;101111.34;4939383;29;20403;-71
2021/11/08 07:28:30;;;;;;;68.22;35.08;;;;;;;14.71;100.00;101106.94;4939020;29;20042;-71
2021/11/08 07:31:16;;;;;;;65.63;36.42;;;;;;;14.80;100.00;101088.19;4939987;29;20033;-71
2021/11/08 07:34:02;;;;;;;69.30;35.10;;;;;;;15.04;100.00;101108.59;4939700;29;20040;-72
2021/11/08 07:36:49;;;;;;;66.65;35.45;;;;;;;15.04;100.00;101087.47;4937366;29;20024;-70
2021/11/08 07:39:34;;;;;;;67.57;33.63;;;;;;;15.07;100.00;101078.59;4924721;29;20023;-70
2021/11/08 07:42:21;;;;;;;63.42;34.47;;;;;;;15.13;100.00;101091.59;4939789;29;20038;-71
2021/11/08 07:45:07;;;;;;;66.40;34.25;;;;;;;15.15;100.00;101097.72;4939112;29;20038;-70
2021/11/08 07:47:56;;;;;;;62.60;33.88;;;;;;;15.16;100.00;101126.72;4939597;29;20035;-71
2021/11/08 07:50:42;;;;;;;73.90;38.08;;;;;;;14.82;100.00;101121.53;4940108;29;20035;-71
2021/11/08 07:53:28;;;;;;;67.68;33.90;;;;;;;14.73;100.00;101145.53;4939645;29;20067;-70
2021/11/08 07:56:14;;;;;;;63.53;32.40;;;;;;;14.55;100.00;101140.75;4939383;29;20032;-70
2021/11/08 07:59:00;;;;;;;54.00;29.40;;;;;;;14.40;100.00;101142.94;4938015;29;20076;-70
2021/11/08 08:01:47;;;;;;;50.58;30.67;;;;;;;14.90;100.00;101123.09;4939349;29;20096;-70
2021/11/08 08:04:33;;;;;;;47.13;28.67;;;;;;;14.80;100.00;101143.59;4923940;29;20458;-71
2021/11/08 08:07:18;;;;;;;49.50;29.20;;;;;;;14.71;100.00;101134.16;4938248;29;20043;-70
2021/11/08 08:10:04;;;;;;;50.13;29.05;;;;;;;15.31;100.00;101131.50;4939029;29;20466;-70
2021/11/08 08:12:50;;;;;;;57.42;34.50;;;;;;;15.08;100.00;101114.63;4937657;29;20114;-70
2021/11/08 08:15:36;;;;;;;52.30;30.85;;;;;;;15.28;100.00;101114.91;4938015;29;20055;-70
2021/11/08 08:18:22;;;;;;;52.15;29.95;;;;;;;14.99;100.00;101105.19;4938910;29;20118;-70
2021/11/08 08:21:08;;;;;;;58.22;31.42;;;;;;;15.13;100.00;101105.69;4937762;29;20031;-69
2021/11/08 08:23:57;;;;;;;52.45;30.20;;;;;;;14.61;100.00;101131.81;4924158;29;20165;-69
2021/11/08 08:26:44;;;;;;;50.50;29.80;;;;;;;15.08;100.00;101151.56;4937886;29;20054;-70
2021/11/08 08:29:32;;;;;;;52.22;29.70;;;;;;;15.08;100.00;101135.75;4939065;29;20027;-71
2021/11/08 08:32:18;;;;;;;44.75;27.35;;;;;;;14.73;100.00;101157.84;4925097;29;20039;-71
2021/11/08 08:35:07;;;;;;;45.30;26.98;;;;;;;15.25;100.00;101136.97;4924467;29;20047;-71
2021/11/08 08:37:53;;;;;;;47.63;27.80;;;;;;;15.11;100.00;101130.38;4937644;29;20115;-70
2021/11/08 08:40:41;;;;;;;51.55;28.25;;;;;;;15.11;100.00;101148.88;4936816;29;20123;-69
2021/11/08 08:43:28;;;;;;;52.67;29.35;;;;;;;15.36;100.00;101153.41;4938217;29;20063;-71
2021/11/08 08:46:15;;;;;;;54.25;30.65;;;;;;;15.22;100.00;101142.34;4938522;29;20035;-69
2021/11/08 08:49:00;;;;;;;55.17;30.65;;;;;;;15.40;100.00;101146.25;4937761;29;20035;-70
2021/11/08 08:51:46;;;;;;;50.05;29.48;;;;;;;15.29;100.00;101129.81;4938244;29;20023;-68
2021/11/08 08:54:32;;;;;;;56.95;31.38;;;;;;;15.01;100.00;101129.78;4923372;29;20369;-69
2021/11/08 08:57:18;;;;;;;55.08;31.48;;;;;;;14.93;100.00;101122.97;4936960;29;20033;-70
2021/11/08 09:00:07;;;;;;;50.15;28.65;;;;;;;15.12;100.00;101105.72;4937501;29;20117;-70
2021/11/08 09:02:55;;;;;;;51.88;28.85;;;;;;;15.37;100.00;101072.41;4937510;29;20458;-70
2021/11/08 09:05:41;;;;;;;54.97;30.27;;;;;;;14.98;100.00;101061.25;4937459;29;20054;-69
2021/11/08 09:08:27;;;;;;;54.85;31.17;;;;;;;15.17;100.00;101048.38;4936855;29;20044;-69
2021/11/08 09:11:14;;;;;;;52.88;29.75;;;;;;;15.19;100.00;101041.28;4939039;29;20035;-69
2021/11/08 09:14:01;;;;;;;53.30;29.98;;;;;;;14.85;100.00;101065.19;4936696;29;20366;-70
2021/11/08 09:16:47;;;;;;;49.28;29.35;;;;;;;14.97;100.00;101061.31;4936834;29;20114;-70
2021/11/08 09:19:33;;;;;;;56.65;31.33;;;;;;;14.85;100.00;101073.09;4938498;29;20036;-70
2021/11/08 09:22:19;;;;;;;53.00;29.65;;;;;;;15.25;100.00;101085.94;4923590;29;20106;-70
2021/11/08 09:25:05;;;;;;;58.15;32.63;;;;;;;15.54;100.00;101078.88;4922574;29;20042;-71
2021/11/08 09:27:55;;;;;;;51.85;31.20;;;;;;;15.44;100.00;101082.75;4923759;29;20088;-70
2021/11/08 09:30:44;;;;;;;47.42;29.10;;;;;;;15.73;100.00;101098.53;4936234;29;20350;-70
2021/11/08 09:33:31;;;;;;;48.47;29.60;;;;;;;15.80;100.00;101075.41;4936744;29;20035;-69
2021/11/08 09:36:37;;;;;;;48.53;29.63;;;;;;;15.20;100.00;101086.09;4936442;29;20024;-70
2021/11/08 09:39:33;;;;;;;56.83;30.95;;;;;;;15.57;100.00;101073.50;4936715;29;20106;-70
2021/11/08 09:42:20;;;;;;;48.05;28.92;;;;;;;15.67;100.00;101072.28;4918364;29;20079;-68
2021/11/08 09:45:07;;;;;;;47.97;29.50;;;;;;;15.50;100.00;101077.25;4936318;29;20093;-70
2021/11/08 09:47:53;;;;;;;49.83;30.08;;;;;;;15.81;100.00;101054.22;4923400;29;20032;-69
2021/11/08 09:50:42;;;;;;;45.17;29.30;;;;;;;15.68;100.00;101059.97;4936529;29;20047;-68
2021/11/08 09:53:29;;;;;;;54.97;32.67;;;;;;;15.84;100.00;101055.91;4922780;29;20036;-70
2021/11/08 09:56:14;;;;;;;51.03;33.00;;;;;;;16.11;100.00;101061.09;4936369;29;20032;-70
2021/11/08 09:59:01;;;;;;;50.53;31.73;;;;;;;15.51;100.00;101064.94;4937583;29;20038;-71
2021/11/08 10:01:51;;;;;;;60.58;34.72;;;;;;;16.08;100.00;101063.84;4938145;29;20062;-70
2021/11/08 10:04:37;;;;;;;52.03;32.28;;;;;;;16.13;100.00;101068.97;4936068;29;20433;-70
2021/11/08 10:07:22;;;;;;;62.30;37.90;;;;;;;16.07;100.00;101077.97;4937225;29;20027;-70
2021/11/08 10:10:08;;;;;;;58.95;34.53;;;;;;;15.71;100.00;101089.75;4937128;29;20056;-72
2021/11/08 10:13:05;;;;;;;50.45;31.63;;;;;;;15.72;100.00;101082.72;4937203;29;20328;-69
2021/11/08 10:15:57;;;;;;;52.13;32.28;;;;;;;16.07;100.00;101101.78;4936998;29;20027;-70
2021/11/08 10:18:48;;;;;;;47.28;29.67;;;;;;;16.12;100.00;101075.19;4935631;29;20023;-69
2021/11/08 10:21:45;;;;;;;45.35;30.13;;;;;;;16.33;100.00;101085.88;4935973;29;20043;-70
2021/11/08 10:24:36;;;;;;;49.00;29.27;;;;;;;15.78;100.00;101099.22;4936189;29;20090;-69
2021/11/08 10:27:22;;;;;;;50.67;30.92;;;;;;;15.66;100.00;101097.00;4936581;29;20035;-70
2021/11/08 10:30:20;;;;;;;48.40;29.75;;;;;;;15.90;100.00;101096.19;4937130;29;20367;-70
2021/11/08 10:33:39;;;;;;;54.60;31.60;;;;;;;15.95;100.00;101091.59;4936593;29;20043;-70
2021/11/08 10:36:25;;;;;;;49.05;29.80;;;;;;;16.15;100.00;101091.78;4940827;29;20031;-70
2021/11/08 10:39:12;;;;;;;45.40;28.88;;;;;;;16.11;100.00;101098.09;4939533;29;20028;-70
2021/11/08 10:42:05;;;;;;;46.60;31.42;;;;;;;15.52;100.00;101101.84;4939929;29;20469;-71
2021/11/08 10:44:53;;;;;;;48.53;30.90;;;;;;;15.69;100.00;101080.16;4940427;29;20046;-70
2021/11/08 10:47:39;;;;;;;48.90;31.85;;;;;;;16.13;100.00;101085.72;4925643;29;20089;-70
2021/11/08 10:50:26;;;;;;;50.42;31.77;;;;;;;15.73;100.00;101077.38;4940770;29;20024;-69
2021/11/08 10:53:12;;;;;;;50.67;34.22;;;;;;;15.55;100.00;101085.03;4926570;29;20035;-70
2021/11/08 10:56:06;;;;;;;53.22;34.28;;;;;;;15.61;100.00;101082.19;4940669;29;20462;-70
2021/11/08 10:58:55;;;;;;;53.53;33.95;;;;;;;15.72;100.00;101082.72;4938878;29;20035;-70
2021/11/08 11:01:47;;;;;;;48.65;31.80;;;;;;;15.58;100.00;101083.16;4939819;29;20170;-70
2021/11/08 11:04:43;;;;;;;50.83;33.08;;;;;;;15.78;100.00;101079.84;4939332;29;20103;-69
2021/11/08 11:07:36;;;;;;;48.60;33.45;;;;;;;15.82;100.00;101078.84;4939885;29;20422;-71
2021/11/08 11:10:22;;;;;;;50.25;32.72;;;;;;;16.13;100.00;101075.13;4939563;29;20394;-70
2021/11/08 11:13:16;;;;;;;56.55;36.20;;;;;;;16.40;100.00;101086.53;4925230;29;20023;-70
2021/11/08 11:16:04;;;;;;;51.50;33.30;;;;;;;16.63;100.00;101086.63;4939514;29;20035;-71
2021/11/08 11:19:00;;;;;;;51.70;32.08;;;;;;;16.44;100.00;101088.19;4938773;29;20079;-71
2021/11/08 11:21:59;;;;;;;51.65;33.40;;;;;;;16.53;100.00;101088.72;4938690;29;20107;-70
2021/11/08 11:24:54;;;;;;;50.80;34.22;;;;;;;16.39;100.00;101090.09;4939628;29;20114;-70
2021/11/08 11:27:48;;;;;;;50.90;34.00;;;;;;;16.29;100.00;101078.09;4939215;29;20035;-70
2021/11/08 11:30:44;;;;;;;50.72;32.92;;;;;;;16.20;100.00;101089.84;4940127;29;20331;-70
2021/11/08 11:33:30;;;;;;;50.90;32.85;;;;;;;16.29;100.00;101086.91;4938884;29;20035;-70
2021/11/08 11:36:18;;;;;;;53.50;33.38;;;;;;;16.16;100.00;101098.81;4940182;29;20119;-70
2021/11/08 11:39:07;;;;;;;50.17;33.53;;;;;;;16.13;100.00;101084.84;4938632;29;20031;-71
2021/11/08 11:42:00;;;;;;;53.92;37.53;;;;;;;16.73;100.00;101090.63;4925352;29;20486;-69
2021/11/08 11:44:48;;;;;;;57.55;34.80;;;;;;;15.89;100.00;101089.19;4926132;29;20438;-70
2021/11/08 11:47:34;;;;;;;52.67;33.50;;;;;;;15.92;100.00;101081.16;4937810;29;20024;-70
2021/11/08 11:50:22;;;;;;;52.67;33.92;;;;;;;16.07;100.00;101071.84;4939687;29;20138;-70
2021/11/08 11:53:08;;;;;;;54.95;34.42;;;;;;;16.11;100.00;101073.47;4938288;29;20035;-71
2021/11/08 11:55:55;;;;;;;53.00;35.35;;;;;;;16.61;100.00;101076.09;4938290;29;20056;-70
2021/11/08 11:58:42;;;;;;;58.20;35.50;;;;;;;15.94;100.00;101087.25;4925268;29;20091;-70
2021/11/08 12:01:29;;;;;;;57.97;40.47;;;;;;;16.37;100.00;101098.09;4938636;29;20371;-70
2021/11/08 12:04:15;;;;;;;62.17;40.92;;;;;;;16.73;100.00;101109.16;4938680;29;20363;-70
2021/11/08 12:07:04;;;;;;;58.05;37.97;;;;;;;16.86;100.00;101095.44;4925668;29;20206;-70
2021/11/08 12:09:51;;;;;;;61.92;38.17;;;;;;;15.98;100.00;101099.44;4938803;29;20538;-71
2021/11/08 12:12:37;;;;;;;55.25;36.53;;;;;;;16.96;100.00;101094.16;4937898;29;20031;-70
2021/11/08 12:15:28;;;;;;;60.97;38.40;;;;;;;16.92;100.00;101083.75;4938997;29;20462;-70
2021/11/08 12:18:16;;;;;;;61.22;38.72;;;;;;;16.58;100.00;101080.59;4939030;29;20513;-70
2021/11/08 12:21:02;;;;;;;60.88;39.20;;;;;;;16.24;100.00;101083.53;4938615;29;20068;-70
2021/11/08 12:23:48;;;;;;;58.80;38.60;;;;;;;16.10;100.00;101069.94;4938014;29;20081;-69
2021/11/08 12:26:34;;;;;;;58.97;37.22;;;;;;;16.91;100.00;101076.72;4923733;29;20039;-71
2021/11/08 12:29:20;;;;;;;60.50;38.40;;;;;;;17.21;100.00;101070.25;4938955;29;20115;-70
2021/11/08 12:32:09;;;;;;;59.95;38.45;;;;;;;16.93;100.00;101073.13;4925594;29;20027;-70
2021/11/08 12:34:58;;;;;;;55.45;37.15;;;;;;;17.42;100.00;101082.69;4938387;29;20356;-70
2021/11/08 12:37:44;;;;;;;54.85;36.40;;;;;;;17.49;100.00;101077.06;4938820;29;20093;-70
2021/11/08 12:40:32;;;;;;;57.03;37.28;;;;;;;16.87;100.00;101083.03;4937471;29;20035;-70
2021/11/08 12:43:31;;;;;;;59.85;37.13;;;;;;;17.19;100.00;101088.84;4943132;29;20027;-70
2021/11/08 12:46:20;;;;;;;58.03;37.67;;;;;;;16.29;100.00;101091.31;4937794;29;20103;-71
2021/11/08 12:49:06;;;;;;;65.10;40.05;;;;;;;15.61;100.00;101095.41;4937907;29;20028;-70
2021/11/08 12:52:14;;;;;;;64.05;40.65;;;;;;;15.98;100.00;101099.44;4938558;29;20172;-71
2021/11/08 12:55:15;;;;;;;65.95;40.78;;;;;;;15.69;100.00;101117.16;4937368;29;20110;-70
2021/11/08 12:58:01;;;;;;;67.78;41.72;;;;;;;16.37;100.00;101124.53;4936119;29;20027;-70
2021/11/08 13:00:51;;;;;;;71.55;44.35;;;;;;;16.66;100.00;101139.41;4923579;29;20035;-70
2021/11/08 13:03:47;;;;;;;67.93;41.35;;;;;;;16.36;100.00;101143.09;4924758;29;20167;-69
2021/11/08 13:06:35;;;;;;;70.75;39.15;;;;;;;16.60;100.00;101136.97;4937415;29;20359;-70
2021/11/08 13:09:24;;;;;;;64.78;41.00;;;;;;;16.66;100.00;101150.84;4937498;29;20455;-69
2021/11/08 13:12:15;;;;;;;60.38;38.50;;;;;;;16.50;100.00;101152.31;4936951;29;20069;-70
2021/11/08 13:15:06;;;;;;;63.42;38.47;;;;;;;16.53;100.00;101162.78;4937178;29;20031;-71
2021/11/08 13:17:58;;;;;;;65.65;39.13;;;;;;;16.64;100.00;101160.63;4937361;29;20043;-70
2021/11/08 13:20:46;;;;;;;64.15;40.33;;;;;;;16.70;100.00;101170.13;4938481;29;20027;-71
2021/11/08 13:23:38;;;;;;;60.03;38.90;;;;;;;16.37;100.00;101172.13;4937055;29;20042;-70
2021/11/08 13:26:24;;;;;;;62.65;37.60;;;;;;;16.53;100.00;101168.09;4936765;29;20046;-70
2021/11/08 13:29:21;;;;;;;61.47;37.95;;;;;;;16.97;100.00;101177.09;4937053;29;20110;-70
2021/11/08 13:32:10;;;;;;;60.72;38.20;;;;;;;16.68;100.00;101177.28;4936673;29;20035;-71
2021/11/08 13:35:05;;;;;;;66.80;40.22;;;;;;;16.71;100.00;101179.78;4936670;29;20028;-70
2021/11/08 13:38:00;;;;;;;64.38;39.92;;;;;;;16.36;100.00;101180.13;4936617;29;20032;-71
2021/11/08 13:40:56;;;;;;;64.47;39.35;;;;;;;16.32;100.00;101174.03;4936510;29;20024;-69
2021/11/08 13:43:46;;;;;;;69.75;40.88;;;;;;;16.26;100.00;101170.75;4922672;29;20477;-70
2021/11/08 13:46:35;;;;;;;62.33;40.15;;;;;;;16.16;100.00;101180.75;4936639;29;20036;-70
2021/11/08 13:49:24;;;;;;;69.68;42.90;;;;;;;16.27;100.00;101188.38;4937378;29;20160;-70
2021/11/08 13:52:12;;;;;;;68.20;42.65;;;;;;;16.34;100.00;101188.09;4923863;29;20032;-70
2021/11/08 13:54:58;;;;;;;67.68;42.95;;;;;;;15.64;100.00;101201.84;4935335;29;20057;-71
2021/11/08 13:57:44;;;;;;;78.78;44.40;;;;;;;15.88;100.00;101203.72;4937515;29;20324;-71
2021/11/08 14:00:30;;;;;;;73.93;45.47;;;;;;;16.34;100.00;101196.03;4922820;29;20039;-70
2021/11/08 14:03:17;;;;;;;74.50;42.92;;;;;;;16.52;100.00;101202.53;4937520;29;20110;-72
2021/11/08 14:06:03;;;;;;;79.82;46.40;;;;;;;16.56;100.00;101204.16;4937516;29;20431;-71
2021/11/08 14:08:48;;;;;;;78.00;44.72;;;;;;;16.53;100.00;101209.53;4938206;29;20090;-70
2021/11/08 14:11:39;;;;;;;73.90;45.03;;;;;;;16.92;100.00;101208.16;4936258;29;20031;-69
2021/11/08 14:14:28;;;;;;;74.32;45.38;;;;;;;16.66;100.00;101201.13;4935767;29;20091;-70
2021/11/08 14:17:15;;;;;;;73.50;44.33;;;;;;;16.51;100.00;101206.09;4936174;29;20122;-71
2021/11/08 14:20:06;;;;;;;76.32;45.05;;;;;;;16.50;100.00;101206.97;4923201;29;20032;-70
2021/11/08 14:22:53;;;;;;;81.43;46.58;;;;;;;16.82;100.00;101212.03;4936630;29;20039;-71
2021/11/08 14:25:39;;;;;;;72.55;43.47;;;;;;;16.93;100.00;101212.53;4935750;29;20451;-71
2021/11/08 14:28:27;;;;;;;73.80;45.90;;;;;;;16.86;100.00;101211.00;4922029;29;20032;-70
2021/11/08 14:31:29;;;;;;;83.13;48.88;;;;;;;15.98;100.00;101212.22;4937421;29;20533;-70
2021/11/08 14:34:16;;;;;;;81.18;49.05;;;;;;;16.50;100.00;101221.09;4936224;29;20027;-70
2021/11/08 14:37:15;;;;;;;84.47;50.60;;;;;;;15.79;100.00;101222.50;4936619;29;20034;-70
2021/11/08 14:40:11;;;;;;;84.60;51.00;;;;;;;15.88;100.00;101231.94;4935545;29;20069;-71
2021/11/08 14:42:57;;;;;;;94.68;51.88;;;;;;;16.09;100.00;101233.88;4935966;29;20027;-69
2021/11/08 14:45:57;;;;;;;86.63;51.58;;;;;;;16.50;100.00;101230.78;4936988;29;20038;-70
2021/11/08 14:48:43;;;;;;;95.40;54.88;;;;;;;16.32;100.00;101228.75;4935788;29;20024;-70
2021/11/08 14:51:29;;;;;;;94.35;53.42;;;;;;;16.26;100.00;101226.28;4937084;29;20054;-71
2021/11/08 14:54:15;;;;;;;87.70;52.30;;;;;;;16.47;100.00;101225.63;4935814;29;20410;-71
2021/11/08 14:57:05;;;;;;;87.47;51.88;;;;;;;16.29;100.00;101235.00;4935693;29;20031;-71
2021/11/08 14:59:54;;;;;;;87.50;53.28;;;;;;;16.35;100.00;101226.00;4936143;29;20459;-71
2021/11/08 15:02:41;;;;;;;84.15;51.05;;;;;;;16.18;100.00;101226.53;4936481;29;20032;-71
2021/11/08 15:05:27;;;;;;;84.68;50.65;;;;;;;15.87;100.00;101238.13;4936427;29;20035;-71
2021/11/08 15:08:22;;;;;;;83.05;50.35;;;;;;;16.30;100.00;101228.78;4936340;29;20540;-70
2021/11/08 15:11:08;;;;;;;91.00;53.22;;;;;;;16.36;100.00;101217.97;4935936;29;20035;-70
2021/11/08 15:14:02;;;;;;;92.55;51.97;;;;;;;16.31;100.00;101237.59;4936789;29;20031;-71
2021/11/08 15:16:57;;;;;;;86.65;50.17;;;;;;;16.21;100.00;101239.66;4935443;29;20020;-70
2021/11/08 15:19:46;;;;;;;82.57;52.17;;;;;;;16.25;100.00;101241.28;4937311;29;20336;-71
2021/11/08 15:22:32;;;;;;;88.13;53.63;;;;;;;16.34;100.00;101259.50;4938394;29;20042;-70
2021/11/08 15:25:38;;;;;;;91.00;54.20;;;;;;;15.39;100.00;101266.84;4938258;29;20031;-70
2021/11/08 15:28:41;;;;;;;86.68;53.30;;;;;;;15.56;100.00;101274.28;4938922;29;20427;-69
2021/11/08 15:31:29;;;;;;;95.28;55.33;;;;;;;15.92;100.00;101267.91;4939086;29;20046;-70
2021/11/08 15:34:16;;;;;;;88.40;52.65;;;;;;;16.00;100.00;101272.06;4940201;29;20043;-70
2021/11/08 15:37:03;;;;;;;87.78;53.33;;;;;;;16.14;100.00;101271.59;4938862;29;20371;-70
2021/11/08 15:39:49;;;;;;;91.75;54.45;;;;;;;16.06;100.00;101268.34;4939972;29;20031;-70
2021/11/08 15:42:34;;;;;;;86.15;53.15;;;;;;;16.09;100.00;101277.06;4939591;29;20024;-69
2021/11/08 15:45:20;;;;;;;93.03;54.00;;;;;;;15.99;100.00;101285.31;4939750;29;20027;-70
2021/11/08 15:48:06;;;;;;;88.57;53.38;;;;;;;15.88;100.00;101284.78;4939648;29;20068;-71
2021/11/08 15:50:54;;;;;;;88.43;52.85;;;;;;;15.78;100.00;101284.19;4938203;29;20042;-70
2021/11/08 15:53:41;;;;;;;86.00;51.38;;;;;;;16.03;100.00;101289.59;4938166;29;20038;-69
2021/11/08 15:56:26;;;;;;;90.45;54.20;;;;;;;16.03;100.00;101303.66;4924332;29;20023;-70
2021/11/08 15:59:12;;;;;;;83.95;52.65;;;;;;;15.77;100.00;101311.53;4938723;29;20023;-69
2021/11/08 16:01:59;;;;;;;90.80;54.25;;;;;;;16.09;100.00;101305.25;4938360;29;20454;-70
2021/11/08 16:04:46;;;;;;;105.65;60.75;;;;;;;15.28;100.00;101307.63;4938193;29;20051;-71
2021/11/08 16:07:32;;;;;;;112.63;65.53;;;;;;;15.64;100.00;101315.44;4938516;29;20031;-70